createdAt,value
2019-05-07T00:00:17.471Z,71.9
2019-05-07T00:01:23.735Z,71.8
2019-05-07T00:03:36.427Z,71.5
2019-05-07T00:05:48.099Z,71.7
2019-05-07T00:10:14.252Z,71.7
2019-05-07T00:12:26.883Z,71.7
2019-05-07T00:13:33.180Z,71.9
2019-05-07T00:16:52.160Z,72.7
2019-05-07T00:19:04.756Z,72.6
2019-05-07T00:22:23.675Z,72.3
2019-05-07T00:23:30.005Z,72.7
2019-05-07T00:25:42.637Z,72.8
2019-05-07T00:32:20.459Z,73.7
2019-05-07T00:34:33.130Z,73.7
2019-05-07T00:35:39.042Z,73.6
2019-05-07T00:36:45.733Z,74
2019-05-07T00:38:58.342Z,74.4
2019-05-07T00:41:11.002Z,74
2019-05-07T00:44:29.906Z,73.7
2019-05-07T00:47:48.856Z,74.4
2019-05-07T00:52:14.053Z,74.1
2019-05-07T00:54:26.730Z,74.4
2019-05-07T00:56:39.304Z,74.4
2019-05-07T00:57:45.672Z,74.5
2019-05-07T01:01:04.590Z,74.7
2019-05-07T01:06:36.170Z,75.3
2019-05-07T01:07:42.451Z,75.5
2019-05-07T01:12:07.731Z,75.7
2019-05-07T01:14:20.351Z,75.8
2019-05-07T01:16:33.174Z,75.3
2019-05-07T01:18:45.056Z,75.8
2019-05-07T01:19:51.834Z,76.1
2019-05-07T01:20:58.193Z,76.1
2019-05-07T01:23:10.832Z,76.1
2019-05-07T01:25:23.523Z,76.5
2019-05-07T01:27:36.048Z,76.4
2019-05-07T01:28:42.329Z,76.4
2019-05-07T01:29:48.695Z,76.6
2019-05-07T01:32:01.340Z,76.7
2019-05-07T01:34:13.095Z,76.5
2019-05-07T01:36:26.739Z,76
2019-05-07T01:41:58.092Z,76.3
2019-05-07T01:43:04.387Z,76.6
2019-05-07T01:47:29.625Z,76.5
2019-05-07T01:49:42.030Z,76.9
2019-05-07T01:50:48.587Z,76.6
2019-05-07T01:51:54.888Z,75.8
2019-05-07T01:54:07.504Z,74.6
2019-05-07T01:58:32.808Z,74.4
2019-05-07T02:00:45.412Z,74
2019-05-07T02:02:58.019Z,73.5
2019-05-07T02:04:04.322Z,73.5
2019-05-07T02:05:10.635Z,73.5
2019-05-07T02:07:23.255Z,73.4
2019-05-07T02:11:48.488Z,74.1
2019-05-07T02:12:54.081Z,74.4
2019-05-07T02:14:01.169Z,74.4
2019-05-07T02:18:26.428Z,74.2
2019-05-07T02:20:38.990Z,74.7
2019-05-07T02:25:04.217Z,74.8
2019-05-07T02:26:10.585Z,74.8
2019-05-07T02:27:16.864Z,74.9
2019-05-07T02:31:42.122Z,76.2
2019-05-07T02:35:01.008Z,75.3
2019-05-07T02:36:07.372Z,75.3
2019-05-07T02:38:20.024Z,75.4
2019-05-07T02:40:32.584Z,75.2
2019-05-07T02:42:45.275Z,75.9
2019-05-07T02:44:57.856Z,75.6
2019-05-07T02:47:10.492Z,75.9
2019-05-07T02:48:16.765Z,76.2
2019-05-07T02:53:48.351Z,76.5
2019-05-07T02:56:01.133Z,76.8
2019-05-07T02:57:07.250Z,76.8
2019-05-07T03:00:26.234Z,76.1
2019-05-07T03:02:38.821Z,76.2
2019-05-07T03:04:51.473Z,76
2019-05-07T03:07:04.098Z,75.8
2019-05-07T03:09:16.707Z,75.4
2019-05-07T03:10:23.020Z,75.8
2019-05-07T03:13:41.974Z,76.1
2019-05-07T03:19:13.054Z,75.8
2019-05-07T03:22:32.045Z,76.1
2019-05-07T03:26:57.665Z,76.2
2019-05-07T03:29:10.349Z,75.8
2019-05-07T03:31:23.354Z,76.1
2019-05-07T03:32:29.290Z,76.2
2019-05-07T03:38:00.792Z,76.2
2019-05-07T03:40:13.044Z,75.9
2019-05-07T03:41:19.753Z,75.9
2019-05-07T03:46:51.275Z,75.9
2019-05-07T03:49:03.931Z,76
2019-05-07T03:51:16.531Z,75.8
2019-05-07T03:53:29.209Z,76.1
2019-05-07T03:54:35.467Z,75.9
2019-05-07T04:00:07.105Z,76.2
2019-05-07T04:02:19.651Z,76.4
2019-05-07T04:03:25.966Z,76
2019-05-07T04:04:32.260Z,76.2
2019-05-07T04:08:57.535Z,75.9
2019-05-07T04:11:10.131Z,76.2
2019-05-07T04:13:22.809Z,76
2019-05-07T04:15:35.402Z,76
2019-05-07T04:16:41.700Z,76.1
2019-05-07T04:17:47.987Z,76.2
2019-05-07T04:20:00.651Z,76
2019-05-07T04:22:13.244Z,75.9
2019-05-07T04:24:25.910Z,76
2019-05-07T04:25:32.223Z,75.7
2019-05-07T04:28:51.171Z,75.7
2019-05-07T04:35:28.978Z,76.4
2019-05-07T04:38:47.901Z,75.7
2019-05-07T04:39:54.264Z,76
2019-05-07T04:42:06.837Z,76.2
2019-05-07T04:44:19.478Z,75.5
2019-05-07T04:46:32.263Z,75.5
2019-05-07T04:47:38.401Z,75.8
2019-05-07T04:48:44.720Z,75.9
2019-05-07T04:53:09.999Z,75.3
2019-05-07T04:59:47.876Z,75.7
2019-05-07T05:04:13.112Z,73.9
2019-05-07T05:09:44.645Z,73.4
2019-05-07T05:15:16.211Z,73.3
2019-05-07T05:21:54.065Z,73.5
2019-05-07T05:23:00.330Z,73.5
2019-05-07T05:24:06.651Z,73.2
2019-05-07T05:28:31.940Z,72.8
2019-05-07T05:30:44.560Z,72.5
2019-05-07T05:31:50.831Z,72.3
2019-05-07T05:32:57.164Z,72.4
2019-05-07T05:35:09.719Z,72
2019-05-07T05:37:22.397Z,72
2019-05-07T05:39:35.001Z,72.2
2019-05-07T05:41:47.729Z,71.7
2019-05-07T05:44:00.280Z,71.7
2019-05-07T05:45:06.566Z,71.8
2019-05-07T05:46:12.884Z,71.3
2019-05-07T05:48:25.470Z,71.2
2019-05-07T05:52:50.671Z,71.8
2019-05-07T05:53:56.982Z,71.9
2019-05-07T05:55:03.029Z,72.2
2019-05-07T05:57:15.931Z,72.4
2019-05-07T05:59:28.545Z,72.9
2019-05-07T06:06:06.420Z,72.7
2019-05-07T06:07:12.723Z,72.6
2019-05-07T06:08:19.012Z,72.6
2019-05-07T06:10:31.650Z,73.7
2019-05-07T06:12:44.026Z,73.2
2019-05-07T06:16:03.209Z,73.9
2019-05-07T06:17:09.483Z,73.9
2019-05-07T06:21:34.706Z,74.3
2019-05-07T06:28:12.581Z,74.5
2019-05-07T06:29:18.907Z,74.2
2019-05-07T06:30:25.211Z,73.5
2019-05-07T06:34:50.413Z,73.3
2019-05-07T06:38:09.344Z,72
2019-05-07T06:39:15.686Z,71.1
2019-05-07T06:45:53.006Z,71.9
2019-05-07T06:48:06.138Z,71.7
2019-05-07T06:51:25.086Z,72.5
2019-05-07T06:52:31.401Z,72.6
2019-05-07T06:54:43.993Z,72.2
2019-05-07T06:56:56.643Z,71.9
2019-05-07T06:59:09.240Z,71.7
2019-05-07T07:00:15.553Z,69.4
2019-05-07T07:01:21.089Z,68.7
2019-05-07T07:03:34.469Z,68.8
2019-05-07T07:07:59.068Z,68.3
2019-05-07T07:12:24.989Z,67.2
2019-05-07T07:13:31.246Z,63.8
2019-05-07T07:14:37.601Z,62.4
2019-05-07T07:16:50.195Z,63.5
2019-05-07T07:19:02.808Z,64.4
2019-05-07T07:22:21.702Z,62.8
2019-05-07T07:23:28.014Z,63.4
2019-05-07T07:27:53.266Z,62.7
2019-05-07T07:34:31.011Z,62.3
2019-05-07T07:35:37.427Z,62.4
2019-05-07T07:36:43.735Z,60.3
2019-05-07T07:41:09.021Z,61.1
2019-05-07T07:44:27.094Z,61.7
2019-05-07T07:45:34.244Z,62.3
2019-05-07T07:47:46.828Z,63.2
2019-05-07T07:54:24.687Z,66.2
2019-05-07T07:57:43.649Z,65.2
2019-05-07T07:59:56.297Z,65.1
2019-05-07T08:05:27.814Z,66.1
2019-05-07T08:06:34.117Z,65.8
2019-05-07T08:07:40.431Z,65.7
2019-05-07T08:09:53.021Z,63.5
2019-05-07T08:12:05.006Z,63.6
2019-05-07T08:14:18.230Z,63.6
2019-05-07T08:16:30.884Z,63.3
2019-05-07T08:18:43.052Z,64.3
2019-05-07T08:19:49.763Z,65.2
2019-05-07T08:23:08.072Z,63.4
2019-05-07T08:25:21.399Z,62.8
2019-05-07T08:28:40.280Z,64.5
2019-05-07T08:29:46.573Z,63.5
2019-05-07T08:31:59.253Z,63.8
2019-05-07T08:33:05.517Z,64.5
2019-05-07T08:34:11.788Z,62.8
2019-05-07T08:38:37.006Z,62.2
2019-05-07T08:41:55.998Z,62.2
2019-05-07T08:45:14.917Z,62.3
2019-05-07T08:47:27.005Z,63.2
2019-05-07T08:49:40.136Z,62.3
2019-05-07T08:50:46.466Z,61.1
2019-05-07T08:51:52.737Z,60.9
2019-05-07T08:54:05.383Z,60.3
2019-05-07T08:55:11.690Z,60.3
2019-05-07T08:58:30.638Z,60.8
2019-05-07T08:59:36.941Z,60.5
2019-05-07T09:00:43.465Z,60.4
2019-05-07T09:02:55.087Z,61.1
2019-05-07T09:04:02.159Z,62
2019-05-07T09:05:08.468Z,63.6
2019-05-07T09:07:21.067Z,60
2019-05-07T09:09:33.707Z,58.6
2019-05-07T09:11:46.351Z,58.6
2019-05-07T09:12:52.662Z,59.1
2019-05-07T09:13:58.090Z,59.3
2019-05-07T09:16:11.594Z,59.9
2019-05-07T09:17:17.867Z,59
2019-05-07T09:18:24.162Z,59.2
2019-05-07T09:25:02.036Z,53.3
2019-05-07T09:29:27.249Z,56.5
2019-05-07T09:31:39.898Z,56.8
2019-05-07T09:33:52.051Z,56.3
2019-05-07T09:34:58.831Z,55.9
2019-05-07T09:38:17.788Z,53.6
2019-05-07T09:42:43.007Z,54.3
2019-05-07T09:44:55.688Z,54
2019-05-07T09:47:08.189Z,53.6
2019-05-07T09:49:20.846Z,52.3
2019-05-07T09:52:39.757Z,52.4
2019-05-07T09:55:58.816Z,53.4
2019-05-07T09:57:04.965Z,53.4
2019-05-07T09:58:11.347Z,53.9
2019-05-07T10:00:23.930Z,52.6
2019-05-07T10:04:49.139Z,54.7
2019-05-07T10:07:01.757Z,52.3
2019-05-07T10:10:20.691Z,54.6
2019-05-07T10:11:26.971Z,55.3
2019-05-07T10:13:39.874Z,53.9
2019-05-07T10:15:52.202Z,53
2019-05-07T10:19:11.167Z,52.8
2019-05-07T10:24:42.670Z,52
2019-05-07T10:31:20.594Z,50.7
2019-05-07T10:32:26.870Z,50.5
2019-05-07T10:33:33.166Z,51.8
2019-05-07T10:37:58.395Z,50.8
2019-05-07T10:41:17.361Z,48.7
2019-05-07T10:42:23.649Z,49.4
2019-05-07T10:46:48.899Z,49.6
2019-05-07T10:49:01.532Z,49.3
2019-05-07T10:53:26.751Z,47.1
2019-05-07T10:55:39.033Z,47.7
2019-05-07T10:57:51.969Z,48.2
2019-05-07T11:00:04.613Z,51
2019-05-07T11:02:17.024Z,49.7
2019-05-07T11:03:23.534Z,49.2
2019-05-07T11:04:29.869Z,49.7
2019-05-07T11:06:42.435Z,49
2019-05-07T11:08:55.064Z,50.6
2019-05-07T11:11:07.711Z,52.8
2019-05-07T11:13:20.286Z,52.1
2019-05-07T11:15:32.901Z,51.7
2019-05-07T11:16:39.213Z,52.2
2019-05-07T11:22:10.766Z,52.7
2019-05-07T11:24:23.395Z,53.7
2019-05-07T11:25:29.725Z,52.3
2019-05-07T11:26:36.208Z,52.2
2019-05-07T11:28:49.303Z,51.8
2019-05-07T11:29:54.928Z,51.4
2019-05-07T11:31:01.224Z,51.1
2019-05-07T11:33:13.863Z,51.3
2019-05-07T11:38:45.361Z,50.8
2019-05-07T11:39:51.071Z,52
2019-05-07T11:47:35.872Z,50.2
2019-05-07T11:50:54.774Z,51.2
2019-05-07T11:52:01.110Z,50.7
2019-05-07T11:57:32.658Z,52.5
2019-05-07T12:00:51.611Z,54.5
2019-05-07T12:04:10.464Z,57
2019-05-07T12:06:23.124Z,53.8
2019-05-07T12:09:42.004Z,56.6
2019-05-07T12:15:13.563Z,55
2019-05-07T12:19:38.876Z,52.9
2019-05-07T12:21:51.425Z,51.6
2019-05-07T12:22:57.762Z,51.8
2019-05-07T12:24:04.080Z,50.3
2019-05-07T12:26:16.774Z,50
2019-05-07T12:28:29.272Z,48.5
2019-05-07T12:31:48.207Z,50.3
2019-05-07T12:32:54.568Z,48.6
2019-05-07T12:35:07.145Z,47.6
2019-05-07T12:36:13.464Z,48.3
2019-05-07T12:41:45.024Z,48.1
2019-05-07T12:43:57.064Z,48
2019-05-07T12:45:03.094Z,49.2
2019-05-07T12:48:22.874Z,49.8
2019-05-07T12:49:29.206Z,49.5
2019-05-07T12:50:35.482Z,49.6
2019-05-07T12:53:54.394Z,47.8
2019-05-07T12:55:00.702Z,46.6
2019-05-07T12:58:19.636Z,49.7
2019-05-07T12:59:25.953Z,48.2
2019-05-07T13:01:38.590Z,45.3
2019-05-07T13:03:51.014Z,46.1
2019-05-07T13:06:03.815Z,45.3
2019-05-07T13:07:10.126Z,46.1
2019-05-07T13:08:16.387Z,45.4
2019-05-07T13:14:54.288Z,46.3
2019-05-07T13:16:00.587Z,45.6
2019-05-07T13:17:06.927Z,45.7
2019-05-07T13:19:19.051Z,46.3
2019-05-07T13:20:25.800Z,45.1
2019-05-07T13:21:32.111Z,45.2
2019-05-07T13:23:44.073Z,46.6
2019-05-07T13:25:57.040Z,45.3
2019-05-07T13:28:09.995Z,48.2
2019-05-07T13:29:16.322Z,48
2019-05-07T13:30:22.600Z,46
2019-05-07T13:32:35.169Z,45.9
2019-05-07T13:34:47.794Z,48.5
2019-05-07T13:37:00.432Z,47.9
2019-05-07T13:38:06.759Z,47.4
2019-05-07T13:41:25.677Z,48.3
2019-05-07T13:43:38.279Z,46.5
2019-05-07T13:45:50.945Z,47.4
2019-05-07T13:48:03.522Z,45.5
2019-05-07T13:50:16.145Z,47.4
2019-05-07T13:51:22.486Z,48.7
2019-05-07T13:54:42.041Z,46.4
2019-05-07T13:55:47.695Z,44.7
2019-05-07T13:59:06.076Z,45.8
2019-05-07T14:00:12.878Z,45.6
2019-05-07T14:01:19.230Z,44.6
2019-05-07T14:04:38.150Z,44.8
2019-05-07T14:05:44.429Z,44.5
2019-05-07T14:06:50.774Z,44.6
2019-05-07T14:07:57.067Z,43.7
2019-05-07T14:10:09.704Z,43.2
2019-05-07T14:13:28.655Z,42.9
2019-05-07T14:14:34.951Z,43.5
2019-05-07T14:19:00.155Z,42.5
2019-05-07T14:22:19.120Z,42.4
2019-05-07T14:23:25.416Z,42.4
2019-05-07T14:25:38.056Z,46.7
2019-05-07T14:26:44.327Z,43.8
2019-05-07T14:32:15.896Z,41.1
2019-05-07T14:36:41.009Z,41.9
2019-05-07T14:38:53.743Z,43.2
2019-05-07T14:41:06.392Z,41.9
2019-05-07T14:43:18.975Z,42.2
2019-05-07T14:44:25.255Z,43.6
2019-05-07T14:47:44.241Z,44.5
2019-05-07T14:48:50.524Z,45.3
2019-05-07T14:49:56.820Z,45
2019-05-07T14:54:22.055Z,43.4
2019-05-07T14:56:34.698Z,44.8
2019-05-07T14:57:41.043Z,44.8
2019-05-07T15:03:12.530Z,45.3
2019-05-07T15:05:25.186Z,46.8
2019-05-07T15:06:31.509Z,45.8
2019-05-07T15:07:37.803Z,46
2019-05-07T15:09:50.414Z,44.8
2019-05-07T15:10:56.731Z,45
2019-05-07T15:12:03.026Z,44.6
2019-05-07T15:14:15.671Z,44.1
2019-05-07T15:16:28.280Z,44.4
2019-05-07T15:18:40.878Z,44.2
2019-05-07T15:19:47.255Z,43.6
2019-05-07T15:23:06.013Z,43.9
2019-05-07T15:24:12.490Z,44.2
2019-05-07T15:27:31.391Z,44.3
2019-05-07T15:28:37.067Z,44.4
2019-05-07T15:29:44.014Z,45
2019-05-07T15:31:56.651Z,45
2019-05-07T15:33:02.943Z,44.3
2019-05-07T15:34:09.261Z,44.1
2019-05-07T15:36:21.888Z,44.6
2019-05-07T15:37:28.190Z,45.3
2019-05-07T15:38:34.469Z,45.4
2019-05-07T15:40:47.095Z,44.4
2019-05-07T15:41:53.424Z,44.8
2019-05-07T15:42:59.746Z,44.7
2019-05-07T15:45:12.347Z,44.6
2019-05-07T15:47:24.986Z,45
2019-05-07T15:50:43.887Z,43.5
2019-05-07T15:51:50.184Z,42.7
2019-05-07T15:55:09.158Z,44.3
2019-05-07T15:56:15.538Z,44.2
2019-05-07T15:57:21.086Z,43.6
2019-05-07T15:58:28.091Z,41.5
2019-05-07T16:00:40.710Z,42.7
2019-05-07T16:02:53.353Z,42.5
2019-05-07T16:05:05.956Z,40.9
2019-05-07T16:07:18.579Z,41.7
2019-05-07T16:08:24.933Z,42.2
2019-05-07T16:09:31.173Z,42.3
2019-05-07T16:11:43.848Z,41.9
2019-05-07T16:12:50.131Z,42.1
2019-05-07T16:13:56.442Z,42.9
2019-05-07T16:17:15.374Z,42.3
2019-05-07T16:18:21.685Z,43.3
2019-05-07T16:19:27.987Z,42.6
2019-05-07T16:20:34.271Z,43
2019-05-07T16:22:46.936Z,43.7
2019-05-07T16:24:59.564Z,42.4
2019-05-07T16:26:06.024Z,42.7
2019-05-07T16:29:24.791Z,41.4
2019-05-07T16:31:37.416Z,41.1
2019-05-07T16:33:50.039Z,41.4
2019-05-07T16:34:56.333Z,41.6
2019-05-07T16:38:15.272Z,45.2
2019-05-07T16:39:21.575Z,44.7
2019-05-07T16:40:27.854Z,41.8
2019-05-07T16:44:53.130Z,40.6
2019-05-07T16:47:05.786Z,41.1
2019-05-07T16:48:12.072Z,42.1
2019-05-07T16:49:18.365Z,42.1
2019-05-07T16:51:30.959Z,43.4
2019-05-07T16:52:37.291Z,41.6
2019-05-07T16:53:43.973Z,41.5
2019-05-07T16:55:56.450Z,42.3
2019-05-07T16:57:02.540Z,42.6
2019-05-07T16:58:08.869Z,42.2
2019-05-07T17:00:21.474Z,42.3
2019-05-07T17:01:27.791Z,41.9
2019-05-07T17:02:34.088Z,41.8
2019-05-07T17:04:46.694Z,41.3
2019-05-07T17:05:53.049Z,41.5
2019-05-07T17:06:59.030Z,41.9
2019-05-07T17:09:11.952Z,42.3
2019-05-07T17:10:18.002Z,43.1
2019-05-07T17:11:24.545Z,43.6
2019-05-07T17:13:37.020Z,43.8
2019-05-07T17:14:43.528Z,44.1
2019-05-07T17:15:49.810Z,44.4
2019-05-07T17:16:56.134Z,44.7
2019-05-07T17:18:02.447Z,43.9
2019-05-07T17:19:08.744Z,43.7
2019-05-07T17:21:21.391Z,43.3
2019-05-07T17:22:27.665Z,44.4
2019-05-07T17:23:34.002Z,43.8
2019-05-07T17:24:40.312Z,44.3
2019-05-07T17:25:46.819Z,45
2019-05-07T17:26:52.907Z,45
2019-05-07T17:29:05.055Z,45.7
2019-05-07T17:31:18.160Z,45.1
2019-05-07T17:32:24.467Z,43.9
2019-05-07T17:33:30.798Z,44.7
2019-05-07T17:35:43.418Z,43.8
2019-05-07T17:36:49.701Z,44.2
2019-05-07T17:37:56.001Z,44.7
2019-05-07T17:39:02.357Z,43.4
2019-05-07T17:40:08.647Z,44.2
2019-05-07T17:41:14.976Z,44.8
2019-05-07T17:42:21.281Z,44.6
2019-05-07T17:43:27.620Z,44
2019-05-07T17:44:33.920Z,43.4
2019-05-07T17:45:40.210Z,43.6
2019-05-07T17:46:46.533Z,43.6
2019-05-07T17:48:59.124Z,45.3
2019-05-07T17:50:05.045Z,45.6
2019-05-07T17:52:18.082Z,44.6
2019-05-07T17:54:30.674Z,44.6
2019-05-07T17:57:49.634Z,45.3
2019-05-07T17:58:55.952Z,45
2019-05-07T18:00:02.256Z,45.7
2019-05-07T18:02:14.087Z,45.1
2019-05-07T18:03:21.190Z,45.3
2019-05-07T18:04:27.523Z,45.9
2019-05-07T18:05:33.814Z,45.9
2019-05-07T18:06:40.105Z,48.3
2019-05-07T18:07:46.443Z,46.7
2019-05-07T18:08:52.742Z,46.3
2019-05-07T18:11:05.362Z,45
2019-05-07T18:12:11.674Z,45.3
2019-05-07T18:13:17.971Z,48.5
2019-05-07T18:15:30.601Z,49
2019-05-07T18:16:36.949Z,47.4
2019-05-07T18:17:43.231Z,46.9
2019-05-07T18:19:55.807Z,46.7
2019-05-07T18:22:08.476Z,48.8
2019-05-07T18:24:21.094Z,46.8
2019-05-07T18:25:27.427Z,48.8
2019-05-07T18:26:33.722Z,49.8
2019-05-07T18:28:46.035Z,49.8
2019-05-07T18:29:52.662Z,49.2
2019-05-07T18:30:58.956Z,48.9
2019-05-07T18:33:11.577Z,48
2019-05-07T18:35:24.202Z,50
2019-05-07T18:37:36.808Z,48.5
2019-05-07T18:38:43.011Z,50.5
2019-05-07T18:39:49.463Z,49.4
2019-05-07T18:42:02.073Z,49.1
2019-05-07T18:43:08.378Z,48.9
2019-05-07T18:44:14.678Z,48.6
2019-05-07T18:47:33.600Z,51
2019-05-07T18:48:39.943Z,52
2019-05-07T18:50:52.558Z,50.5
2019-05-07T18:51:58.860Z,49.8
2019-05-07T18:55:17.771Z,50.3
2019-05-07T18:57:30.037Z,50.9
2019-05-07T18:59:43.058Z,53.3
2019-05-07T19:00:49.315Z,52.3
2019-05-07T19:01:55.760Z,51.3
2019-05-07T19:04:08.306Z,52.3
2019-05-07T19:06:20.890Z,52
2019-05-07T19:08:33.005Z,52.6
2019-05-07T19:09:39.857Z,53.2
2019-05-07T19:10:46.016Z,53.1
2019-05-07T19:12:58.796Z,54.3
2019-05-07T19:14:05.079Z,52.8
2019-05-07T19:15:11.368Z,53.5
2019-05-07T19:16:17.069Z,54.4
2019-05-07T19:17:24.012Z,53.8
2019-05-07T19:19:36.637Z,53.6
2019-05-07T19:22:55.850Z,51.9
2019-05-07T19:24:01.088Z,53.8
2019-05-07T19:28:27.112Z,52.3
2019-05-07T19:30:39.718Z,52.4
2019-05-07T19:31:46.026Z,51.8
2019-05-07T19:32:52.537Z,54.4
2019-05-07T19:36:11.031Z,54.8
2019-05-07T19:39:30.021Z,54.6
2019-05-07T19:41:42.845Z,54
2019-05-07T19:43:55.489Z,55.1
2019-05-07T19:45:01.771Z,55.1
2019-05-07T19:46:08.001Z,53.7
2019-05-07T19:47:14.422Z,54.9
2019-05-07T19:48:20.732Z,53
2019-05-07T19:50:33.354Z,54.5
2019-05-07T19:52:46.002Z,56
2019-05-07T19:53:52.317Z,55
2019-05-07T19:54:58.572Z,55.1
2019-05-07T19:57:11.234Z,55.2
2019-05-07T19:58:17.053Z,55.9
2019-05-07T19:59:23.859Z,55.3
2019-05-07T20:03:49.117Z,55.6
2019-05-07T20:04:55.403Z,56
2019-05-07T20:06:01.719Z,56.2
2019-05-07T20:07:08.002Z,55.6
2019-05-07T20:10:26.918Z,55
2019-05-07T20:11:33.304Z,54.6
2019-05-07T20:12:39.586Z,54.9
2019-05-07T20:13:45.895Z,55.7
2019-05-07T20:15:58.510Z,56.3
2019-05-07T20:17:04.082Z,56
2019-05-07T20:19:17.456Z,54.3
2019-05-07T20:20:23.758Z,55.9
2019-05-07T20:21:30.041Z,54.5
2019-05-07T20:23:42.697Z,56
2019-05-07T20:24:49.002Z,55.3
2019-05-07T20:25:55.306Z,56.7
2019-05-07T20:27:01.631Z,56.5
2019-05-07T20:28:07.940Z,56.5
2019-05-07T20:29:14.260Z,55.5
2019-05-07T20:30:20.056Z,56.3
2019-05-07T20:31:26.872Z,57
2019-05-07T20:32:33.200Z,57
2019-05-07T20:33:39.527Z,57.1
2019-05-07T20:34:45.816Z,57.2
2019-05-07T20:35:52.123Z,56.5
2019-05-07T20:36:58.439Z,55.6
2019-05-07T20:38:04.754Z,55.1
2019-05-07T20:39:11.057Z,55
2019-05-07T20:41:23.647Z,57.5
2019-05-07T20:42:29.987Z,55.9
2019-05-07T20:44:42.614Z,56.2
2019-05-07T20:45:48.884Z,57
2019-05-07T20:48:01.536Z,56.1
2019-05-07T20:51:20.443Z,55.3
2019-05-07T20:52:26.761Z,56.3
2019-05-07T20:54:39.412Z,56.4
2019-05-07T20:55:45.774Z,55.6
2019-05-07T20:56:52.055Z,55.9
2019-05-07T20:59:04.627Z,57.7
2019-05-07T21:00:10.095Z,56.9
2019-05-07T21:01:17.002Z,56.8
2019-05-07T21:02:23.587Z,57.5
2019-05-07T21:03:29.863Z,57
2019-05-07T21:04:36.215Z,57.7
2019-05-07T21:05:42.495Z,58.7
2019-05-07T21:10:08.037Z,58.7
2019-05-07T21:11:14.085Z,57.5
2019-05-07T21:12:20.387Z,58.5
2019-05-07T21:13:26.699Z,58.2
2019-05-07T21:14:33.015Z,57.7
2019-05-07T21:16:45.063Z,56.6
2019-05-07T21:17:51.955Z,57.3
2019-05-07T21:18:58.259Z,57.7
2019-05-07T21:21:10.854Z,56.8
2019-05-07T21:22:17.198Z,56.8
2019-05-07T21:23:23.050Z,57.9
2019-05-07T21:25:36.143Z,58.3
2019-05-07T21:26:42.438Z,58.9
2019-05-07T21:27:48.745Z,58.9
2019-05-07T21:30:01.034Z,58.4
2019-05-07T21:31:07.688Z,59.1
2019-05-07T21:32:14.000Z,59.2
2019-05-07T21:34:26.610Z,58
2019-05-07T21:35:32.093Z,57.2
2019-05-07T21:36:39.248Z,58.8
2019-05-07T21:38:51.844Z,57.3
2019-05-07T21:39:58.179Z,57.9
2019-05-07T21:41:04.490Z,58.4
2019-05-07T21:43:17.098Z,58.8
2019-05-07T21:44:23.425Z,59.4
2019-05-07T21:45:29.739Z,59.7
2019-05-07T21:48:48.671Z,59.2
2019-05-07T21:53:13.920Z,59
2019-05-07T21:54:20.234Z,58.1
2019-05-07T21:56:32.880Z,57.8
2019-05-07T21:57:39.162Z,58
2019-05-07T22:00:58.081Z,59.4
2019-05-07T22:02:04.422Z,58.4
2019-05-07T22:03:10.718Z,58.5
2019-05-07T22:05:23.342Z,57.1
2019-05-07T22:06:29.634Z,58.4
2019-05-07T22:07:35.995Z,56.9
2019-05-07T22:09:48.577Z,58.3
2019-05-07T22:10:54.902Z,58.4
2019-05-07T22:12:01.211Z,57.9
2019-05-07T22:14:13.800Z,59.4
2019-05-07T22:16:26.454Z,57.7
2019-05-07T22:18:39.051Z,57.9
2019-05-07T22:19:45.397Z,58.2
2019-05-07T22:23:04.313Z,57.5
2019-05-07T22:24:10.635Z,58.3
2019-05-07T22:25:16.946Z,59.2
2019-05-07T22:27:29.578Z,57.9
2019-05-07T22:28:35.855Z,58.4
2019-05-07T22:29:42.190Z,58.4
2019-05-07T22:31:54.818Z,58.8
2019-05-07T22:33:01.198Z,59.3
2019-05-07T22:34:07.451Z,59.6
2019-05-07T22:36:20.052Z,60.1
2019-05-07T22:37:26.381Z,59.6
2019-05-07T22:38:32.693Z,59.8
2019-05-07T22:39:38.994Z,59.4
2019-05-07T22:40:45.275Z,59.8
2019-05-07T22:41:51.640Z,59.5
2019-05-07T22:42:57.935Z,60.3
2019-05-07T22:45:10.558Z,60.3
2019-05-07T22:46:16.862Z,59.4
2019-05-07T22:47:23.175Z,60.1
2019-05-07T22:49:35.800Z,58.5
2019-05-07T22:50:42.142Z,59.1
2019-05-07T22:54:01.031Z,58.7
2019-05-07T22:55:07.036Z,59
2019-05-07T22:56:13.635Z,59.3
2019-05-07T22:58:26.029Z,59.8
2019-05-07T22:59:32.610Z,59.6
2019-05-07T23:00:38.917Z,59
2019-05-07T23:01:45.227Z,58.8
2019-05-07T23:02:51.052Z,59.4
2019-05-07T23:03:57.852Z,59.8
2019-05-07T23:05:04.143Z,59.2
2019-05-07T23:07:16.787Z,58.7
2019-05-07T23:08:23.000Z,58.9
2019-05-07T23:09:29.412Z,58.5
2019-05-07T23:12:48.367Z,59.2
2019-05-07T23:13:54.066Z,59
2019-05-07T23:15:00.963Z,59
2019-05-07T23:16:07.274Z,59.2
2019-05-07T23:17:13.590Z,59.5
2019-05-07T23:18:19.890Z,59.1
2019-05-07T23:20:32.523Z,59.6
2019-05-07T23:22:45.145Z,60.1
2019-05-07T23:23:51.455Z,60.2
2019-05-07T23:24:57.747Z,60
2019-05-07T23:26:04.008Z,60.2
2019-05-07T23:29:23.007Z,60
2019-05-07T23:30:29.333Z,61
2019-05-07T23:31:35.639Z,59.4
2019-05-07T23:33:48.259Z,60.3
2019-05-07T23:34:54.057Z,60.5
2019-05-07T23:36:00.869Z,60.9
2019-05-07T23:38:13.502Z,60.6
2019-05-07T23:39:19.820Z,59.9
2019-05-07T23:40:26.087Z,60.3
2019-05-07T23:42:38.745Z,60.3
2019-05-07T23:44:51.374Z,59.6
2019-05-07T23:48:10.268Z,59.7
2019-05-07T23:49:16.590Z,59.2
2019-05-07T23:50:22.934Z,58.8
2019-05-07T23:51:29.265Z,59.8
2019-05-07T23:52:35.558Z,60.4
2019-05-07T23:53:41.875Z,60.1
2019-05-07T23:55:54.483Z,59.9
2019-05-07T23:57:00.790Z,60.8
